Time;durP1;ratioP1;P1;durP2;ratioP2;P2;SDS_P1;SDS_P2;PMS_P1;PMS_P2;Temp;Humidity;BMP_temperature;BMP_pressure;BME280_temperature;BME280_humidity;BME280_pressure;Samples;Min_cycle;Max_cycle;Signal;HPM_P1;HPM_P2
2022/04/20 00:00:41;;;;;;;6.78;2.28;;;13.80;63.90;;;;;;5082829;28;20033;-67
2022/04/20 00:03:07;;;;;;;7.88;1.90;;;13.80;64.00;;;;;;5081128;28;20390;-66
2022/04/20 00:05:33;;;;;;;6.32;1.95;;;13.80;64.00;;;;;;5081317;28;20032;-66
2022/04/20 00:08:03;;;;;;;9.93;1.92;;;13.80;64.20;;;;;;5081142;28;20399;-66
2022/04/20 00:10:29;;;;;;;8.93;2.28;;;13.80;64.20;;;;;;5081384;28;20028;-66
2022/04/20 00:12:56;;;;;;;8.00;1.83;;;13.80;64.20;;;;;;5080313;28;20036;-66
2022/04/20 00:15:22;;;;;;;9.55;2.00;;;13.70;64.10;;;;;;5079177;28;20150;-66
2022/04/20 00:17:48;;;;;;;6.97;2.42;;;13.70;64.30;;;;;;5081891;28;20021;-66
2022/04/20 00:20:14;;;;;;;7.03;1.95;;;13.70;64.50;;;;;;5083941;28;20077;-66
2022/04/20 00:22:39;;;;;;;6.20;1.85;;;13.70;64.60;;;;;;5084430;28;20453;-67
2022/04/20 00:25:06;;;;;;;8.88;2.10;;;13.70;64.80;;;;;;5085661;28;20027;-66
2022/04/20 00:27:36;;;;;;;9.52;2.55;;;13.70;65.10;;;;;;5076811;28;20137;-66
2022/04/20 00:30:04;;;;;;;7.97;2.10;;;13.60;65.30;;;;;;5081372;28;20031;-66
2022/04/20 00:32:30;;;;;;;6.25;2.03;;;13.60;65.40;;;;;;5082238;28;20040;-67
2022/04/20 00:34:56;;;;;;;7.45;2.17;;;13.50;65.50;;;;;;5083339;28;20098;-67
2022/04/20 00:37:22;;;;;;;5.22;1.90;;;13.50;65.70;;;;;;5085844;28;20032;-67
2022/04/20 00:39:48;;;;;;;9.95;2.47;;;13.50;65.80;;;;;;5082518;28;20078;-67
2022/04/20 00:42:14;;;;;;;7.20;1.90;;;13.40;65.80;;;;;;5077379;28;20479;-67
2022/04/20 00:44:41;;;;;;;7.18;2.35;;;13.40;65.90;;;;;;5080014;28;20020;-66
2022/04/20 00:47:09;;;;;;;9.10;2.22;;;13.40;66.00;;;;;;5084219;28;20036;-66
2022/04/20 00:49:35;;;;;;;5.38;2.25;;;13.40;66.10;;;;;;5077799;28;20058;-66
2022/04/20 00:52:03;;;;;;;6.43;2.10;;;13.30;66.20;;;;;;5085570;28;20050;-66
2022/04/20 00:54:29;;;;;;;9.02;2.05;;;13.30;66.30;;;;;;5082568;28;20025;-66
2022/04/20 00:56:55;;;;;;;6.80;2.45;;;13.30;66.30;;;;;;5081222;28;20036;-66
2022/04/20 00:59:27;;;;;;;6.28;1.98;;;13.20;66.40;;;;;;5084666;28;20027;-66
2022/04/20 01:01:55;;;;;;;7.65;2.40;;;13.20;66.40;;;;;;5081778;28;20066;-66
2022/04/20 01:04:20;;;;;;;5.82;2.17;;;13.20;66.30;;;;;;5089794;28;20236;-67
2022/04/20 01:06:49;;;;;;;6.90;2.10;;;13.20;66.40;;;;;;5086681;28;20028;-67
2022/04/20 01:09:15;;;;;;;13.40;2.72;;;13.20;66.50;;;;;;5086930;28;20024;-67
2022/04/20 01:11:42;;;;;;;8.90;2.40;;;13.10;66.50;;;;;;5083536;28;20060;-67
2022/04/20 01:14:09;;;;;;;6.75;2.10;;;13.10;66.50;;;;;;5083801;28;20020;-67
2022/04/20 01:16:35;;;;;;;5.38;2.15;;;13.10;66.60;;;;;;5078954;28;20036;-67
2022/04/20 01:19:02;;;;;;;5.75;2.25;;;13.00;67.00;;;;;;5085643;28;20061;-67
2022/04/20 01:21:28;;;;;;;5.53;2.17;;;13.00;67.10;;;;;;5088253;28;20093;-67
2022/04/20 01:23:54;;;;;;;6.20;2.05;;;13.00;67.20;;;;;;5083083;28;20043;-67
2022/04/20 01:26:20;;;;;;;8.73;2.50;;;12.90;67.30;;;;;;5083712;28;20028;-67
2022/04/20 01:28:47;;;;;;;7.88;2.50;;;12.90;67.30;;;;;;5077307;28;20166;-67
2022/04/20 01:31:15;;;;;;;5.28;2.22;;;12.90;67.40;;;;;;5090060;28;20032;-67
2022/04/20 01:33:42;;;;;;;4.80;2.20;;;12.90;67.30;;;;;;5078596;28;20554;-67
2022/04/20 01:36:09;;;;;;;6.45;2.10;;;12.90;67.40;;;;;;5084075;28;20129;-67
2022/04/20 01:38:38;;;;;;;5.50;2.33;;;12.80;67.20;;;;;;5086622;28;20035;-67
2022/04/20 01:41:05;;;;;;;8.50;2.80;;;12.80;67.20;;;;;;5078181;28;20108;-67
2022/04/20 01:43:31;;;;;;;7.22;2.33;;;12.70;67.30;;;;;;5088274;28;20513;-67
2022/04/20 01:45:57;;;;;;;6.20;1.90;;;12.80;67.50;;;;;;5087719;28;20078;-67
2022/04/20 01:48:23;;;;;;;7.35;2.20;;;12.70;67.20;;;;;;5080879;28;20024;-67
2022/04/20 01:53:33;;;;;;;8.32;2.63;;;12.60;67.10;;;;;;5085214;28;20111;-67
2022/04/20 01:56:00;;;;;;;7.47;2.47;;;12.60;67.30;;;;;;5086951;28;20106;-67
2022/04/20 01:58:27;;;;;;;8.02;2.80;;;12.60;67.50;;;;;;5085699;28;20028;-67
2022/04/20 02:00:53;;;;;;;6.97;2.30;;;12.60;67.70;;;;;;5084626;28;20111;-67
2022/04/20 02:03:19;;;;;;;7.53;2.05;;;12.50;67.70;;;;;;5088514;28;20103;-67
2022/04/20 02:05:44;;;;;;;6.50;2.30;;;12.50;67.80;;;;;;5082043;28;20032;-67
2022/04/20 02:08:10;;;;;;;5.50;2.38;;;12.50;68.00;;;;;;5084276;28;20441;-67
2022/04/20 02:10:36;;;;;;;6.07;2.45;;;12.50;68.20;;;;;;5081570;28;20038;-67
2022/04/20 02:13:02;;;;;;;6.63;2.67;;;12.50;68.40;;;;;;5085848;28;20052;-67
2022/04/20 02:15:28;;;;;;;8.00;2.38;;;12.50;68.40;;;;;;5078840;28;20101;-67
2022/04/20 02:17:54;;;;;;;8.48;2.20;;;12.50;68.50;;;;;;5080790;28;20479;-67
2022/04/20 02:20:21;;;;;;;7.82;2.05;;;12.40;68.70;;;;;;5082537;28;20027;-67
2022/04/20 02:22:46;;;;;;;7.60;2.60;;;12.40;68.60;;;;;;5085717;28;20024;-67
2022/04/20 02:25:12;;;;;;;5.93;2.28;;;12.30;68.60;;;;;;5087401;28;20491;-67
2022/04/20 02:27:38;;;;;;;5.93;2.50;;;12.30;68.60;;;;;;5074622;28;20028;-67
2022/04/20 02:30:05;;;;;;;5.32;2.45;;;12.30;68.60;;;;;;5075003;28;20017;-67
2022/04/20 02:32:30;;;;;;;6.55;2.38;;;12.20;68.60;;;;;;5083414;28;20534;-67
2022/04/20 02:34:56;;;;;;;5.82;2.35;;;12.20;68.70;;;;;;5076174;28;20135;-67
2022/04/20 02:37:23;;;;;;;7.13;2.58;;;12.10;68.60;;;;;;5085645;28;20032;-67
2022/04/20 02:39:49;;;;;;;6.18;2.28;;;12.10;68.70;;;;;;5081062;28;20051;-67
2022/04/20 02:42:16;;;;;;;5.75;2.30;;;12.00;68.70;;;;;;5085359;28;20077;-67
2022/04/20 02:44:43;;;;;;;7.90;3.10;;;12.10;68.80;;;;;;5084403;28;20028;-67
2022/04/20 02:47:09;;;;;;;4.68;2.35;;;12.00;68.70;;;;;;5086230;28;20020;-67
2022/04/20 02:49:35;;;;;;;6.68;2.40;;;12.00;68.60;;;;;;5081106;28;20015;-66
2022/04/20 02:52:02;;;;;;;7.38;2.45;;;12.00;68.30;;;;;;5085483;28;20038;-66
2022/04/20 02:54:29;;;;;;;5.18;2.00;;;12.00;68.10;;;;;;5084571;28;20070;-66
2022/04/20 02:56:55;;;;;;;5.88;2.50;;;12.00;68.40;;;;;;5086015;28;20035;-66
2022/04/20 02:59:21;;;;;;;9.93;2.97;;;11.90;68.30;;;;;;5084554;28;20031;-66
2022/04/20 03:01:46;;;;;;;7.38;3.25;;;11.90;68.80;;;;;;5085224;28;20032;-66
2022/04/20 03:04:12;;;;;;;8.57;2.85;;;11.90;69.20;;;;;;5075155;28;20035;-66
2022/04/20 03:06:38;;;;;;;11.50;3.13;;;11.90;69.30;;;;;;5076119;28;20109;-66
2022/04/20 03:09:04;;;;;;;6.53;2.42;;;11.90;69.20;;;;;;5080261;28;20052;-67
2022/04/20 03:11:30;;;;;;;8.85;3.00;;;11.90;69.20;;;;;;5082345;28;20059;-66
2022/04/20 03:13:57;;;;;;;9.40;3.38;;;11.90;69.30;;;;;;5077220;28;20412;-66
2022/04/20 03:16:24;;;;;;;7.55;3.10;;;11.90;69.60;;;;;;5073409;28;20090;-66
2022/04/20 03:18:50;;;;;;;7.50;3.40;;;11.90;69.80;;;;;;5077345;28;20398;-66
2022/04/20 03:21:16;;;;;;;8.45;3.70;;;11.90;69.90;;;;;;5081208;28;20024;-66
2022/04/20 03:23:42;;;;;;;9.38;3.70;;;11.90;70.20;;;;;;5079634;28;20027;-66
2022/04/20 03:26:08;;;;;;;10.73;3.78;;;12.00;70.50;;;;;;5082718;28;20036;-66
2022/04/20 03:28:34;;;;;;;6.97;3.40;;;12.00;70.70;;;;;;5080758;28;20028;-67
2022/04/20 03:31:01;;;;;;;10.63;3.72;;;11.90;70.70;;;;;;5083663;28;20522;-66
2022/04/20 03:33:27;;;;;;;7.78;3.30;;;11.90;71.10;;;;;;5083618;28;20089;-66
2022/04/20 03:35:53;;;;;;;7.63;3.45;;;11.90;71.50;;;;;;5081139;28;20562;-67
2022/04/20 03:38:19;;;;;;;9.65;3.47;;;11.80;71.80;;;;;;5079918;28;20033;-67
2022/04/20 03:40:45;;;;;;;7.45;3.33;;;11.80;71.90;;;;;;5087833;28;20038;-66
2022/04/20 03:43:11;;;;;;;9.80;3.17;;;11.80;72.00;;;;;;5085723;28;20024;-66
2022/04/20 03:45:37;;;;;;;6.38;3.50;;;11.70;72.10;;;;;;5074370;28;20036;-67
2022/04/20 03:48:04;;;;;;;8.00;3.35;;;11.70;72.10;;;;;;5070218;28;20032;-66
2022/04/20 03:50:30;;;;;;;8.77;3.35;;;11.70;72.10;;;;;;5083409;28;20024;-67
2022/04/20 03:52:56;;;;;;;8.82;3.65;;;11.70;72.10;;;;;;5081274;28;20059;-66
2022/04/20 03:55:22;;;;;;;12.25;3.70;;;11.70;72.10;;;;;;5087303;28;20494;-66
2022/04/20 03:57:48;;;;;;;8.45;3.63;;;11.70;72.20;;;;;;5072377;28;20035;-66
2022/04/20 04:00:14;;;;;;;6.82;3.08;;;11.70;72.20;;;;;;5077004;28;20097;-67
2022/04/20 04:02:39;;;;;;;9.13;3.67;;;11.60;72.10;;;;;;5075085;28;20020;-66
2022/04/20 04:05:06;;;;;;;8.32;3.50;;;11.60;72.20;;;;;;5081879;28;20038;-66
2022/04/20 04:07:32;;;;;;;6.10;3.15;;;11.60;72.20;;;;;;5086674;28;20081;-67
2022/04/20 04:09:57;;;;;;;5.93;3.03;;;11.60;71.90;;;;;;5084945;28;20028;-66
2022/04/20 04:12:24;;;;;;;8.27;3.60;;;11.50;71.50;;;;;;5083422;28;20016;-66
2022/04/20 04:14:50;;;;;;;9.15;3.67;;;11.50;71.40;;;;;;5079108;28;20495;-66
2022/04/20 04:17:16;;;;;;;7.00;3.33;;;11.40;72.10;;;;;;5080158;28;20186;-67
2022/04/20 04:19:42;;;;;;;9.07;3.50;;;11.40;72.40;;;;;;5078200;28;20117;-66
2022/04/20 04:22:07;;;;;;;8.50;3.25;;;11.40;72.60;;;;;;5086452;28;20191;-67
2022/04/20 04:24:36;;;;;;;9.23;3.50;;;11.30;72.70;;;;;;5074463;28;20089;-66
2022/04/20 04:27:03;;;;;;;8.55;3.60;;;11.30;72.80;;;;;;5082747;28;20027;-66
2022/04/20 04:29:31;;;;;;;9.05;3.67;;;11.20;73.10;;;;;;5078000;28;20028;-66
2022/04/20 04:31:57;;;;;;;8.82;3.70;;;11.20;73.10;;;;;;5072731;28;20447;-66
2022/04/20 04:34:23;;;;;;;9.05;3.45;;;11.20;73.20;;;;;;5082723;28;20514;-66
2022/04/20 04:36:51;;;;;;;10.48;3.22;;;11.20;73.20;;;;;;5087529;28;20038;-66
2022/04/20 04:39:21;;;;;;;7.00;3.22;;;11.20;73.10;;;;;;5085666;28;20048;-66
2022/04/20 04:41:50;;;;;;;8.80;3.38;;;11.20;72.90;;;;;;5084409;28;20491;-66
2022/04/20 04:44:20;;;;;;;8.13;3.67;;;11.20;72.50;;;;;;5088368;28;20744;-66
2022/04/20 04:49:31;;;;;;;7.55;3.55;;;11.10;72.10;;;;;;5081893;28;20035;-66
2022/04/20 04:51:58;;;;;;;5.97;2.92;;;11.10;71.90;;;;;;5087982;28;20032;-67
2022/04/20 04:54:24;;;;;;;9.00;3.47;;;11.10;72.10;;;;;;5079514;28;20029;-67
2022/04/20 04:56:51;;;;;;;8.90;3.90;;;11.10;71.90;;;;;;5081386;28;20055;-67
2022/04/20 04:59:18;;;;;;;9.45;4.00;;;11.00;71.80;;;;;;5085268;28;20028;-67
2022/04/20 05:01:45;;;;;;;8.30;3.40;;;11.00;71.70;;;;;;5088701;28;20024;-66
2022/04/20 05:04:11;;;;;;;9.95;3.58;;;10.90;71.70;;;;;;5086071;28;20028;-67
2022/04/20 05:06:37;;;;;;;7.80;3.53;;;10.90;71.60;;;;;;5082449;28;20036;-67
2022/04/20 05:09:04;;;;;;;9.20;3.80;;;10.90;71.60;;;;;;5083295;28;20024;-67
2022/04/20 05:11:30;;;;;;;8.98;3.80;;;10.90;71.80;;;;;;5086730;28;20027;-67
2022/04/20 05:13:56;;;;;;;7.07;3.90;;;11.00;72.20;;;;;;5086323;28;20525;-67
2022/04/20 05:16:22;;;;;;;19.27;4.40;;;11.00;72.80;;;;;;5084886;28;20040;-67
2022/04/20 05:18:48;;;;;;;6.90;3.67;;;11.00;73.20;;;;;;5084322;28;20039;-67
2022/04/20 05:21:14;;;;;;;11.82;4.25;;;11.00;73.60;;;;;;5084097;28;20027;-68
2022/04/20 05:23:39;;;;;;;9.63;4.13;;;11.00;73.90;;;;;;5082452;28;20058;-68
2022/04/20 05:26:08;;;;;;;10.05;4.35;;;11.00;74.40;;;;;;5077609;28;20032;-67
2022/04/20 05:28:34;;;;;;;10.82;5.20;;;11.00;75.20;;;;;;5083511;28;20096;-67
2022/04/20 05:31:00;;;;;;;11.05;4.50;;;11.10;75.90;;;;;;5078256;28;20029;-68
2022/04/20 05:33:26;;;;;;;9.52;4.18;;;11.10;76.90;;;;;;5075128;28;20023;-68
2022/04/20 05:35:51;;;;;;;9.13;4.13;;;11.10;77.40;;;;;;5075188;28;20151;-67
2022/04/20 05:44:02;;;;;;;12.50;4.32;;;11.20;76.80;;;;;;5065638;28;20090;-68
2022/04/20 05:46:28;;;;;;;9.25;4.00;;;11.20;76.60;;;;;;5066478;28;20043;-68
2022/04/20 05:48:54;;;;;;;7.10;4.10;;;11.20;76.60;;;;;;5063083;28;20116;-68
2022/04/20 05:51:20;;;;;;;10.25;4.22;;;11.30;76.60;;;;;;5062719;28;20044;-68
2022/04/20 05:53:45;;;;;;;11.73;4.45;;;11.30;76.40;;;;;;5060142;28;20024;-68
2022/04/20 05:56:11;;;;;;;11.23;4.80;;;11.40;76.40;;;;;;5059918;28;20052;-68
2022/04/20 05:58:37;;;;;;;10.25;4.90;;;11.40;76.40;;;;;;5052499;28;20044;-68
2022/04/20 06:01:03;;;;;;;10.85;4.53;;;11.50;76.50;;;;;;5064260;28;20483;-68
2022/04/20 06:03:28;;;;;;;9.60;4.70;;;11.50;76.50;;;;;;5063628;28;20035;-68
2022/04/20 06:05:54;;;;;;;16.05;8.27;;;11.60;76.90;;;;;;5067879;28;20032;-68
2022/04/20 06:08:20;;;;;;;15.27;7.68;;;11.60;77.40;;;;;;5064439;28;20021;-68
2022/04/20 06:10:46;;;;;;;14.82;7.05;;;11.70;77.90;;;;;;5071417;28;20048;-68
2022/04/20 06:13:12;;;;;;;12.43;5.70;;;11.70;78.20;;;;;;5066709;28;20048;-68
2022/04/20 06:15:38;;;;;;;10.80;5.63;;;11.80;78.70;;;;;;5067542;28;20551;-68
2022/04/20 06:18:04;;;;;;;11.27;5.60;;;11.90;78.50;;;;;;5079463;28;20063;-68
2022/04/20 06:20:29;;;;;;;10.63;5.60;;;12.00;78.90;;;;;;5076132;28;20110;-69
2022/04/20 06:22:55;;;;;;;11.90;6.30;;;12.10;79.00;;;;;;5083258;28;20119;-68
2022/04/20 06:25:21;;;;;;;12.30;6.28;;;12.20;78.90;;;;;;5070772;28;20039;-68
2022/04/20 06:27:47;;;;;;;12.70;6.65;;;12.30;78.80;;;;;;5073714;28;20487;-68
2022/04/20 06:30:12;;;;;;;10.20;6.22;;;12.40;78.80;;;;;;5072327;28;20021;-68
2022/04/20 06:32:38;;;;;;;14.55;6.40;;;12.50;78.70;;;;;;5083894;28;20036;-67
2022/04/20 06:35:05;;;;;;;16.90;6.22;;;12.60;78.60;;;;;;5086886;28;20040;-69
2022/04/20 06:37:30;;;;;;;12.02;6.68;;;12.70;78.60;;;;;;5085127;28;20498;-68
2022/04/20 06:39:56;;;;;;;14.82;6.93;;;12.70;78.80;;;;;;5091089;28;20023;-68
2022/04/20 06:42:23;;;;;;;16.92;7.95;;;12.80;79.10;;;;;;5088206;28;20514;-67
2022/04/20 06:44:48;;;;;;;13.63;8.15;;;13.00;78.80;;;;;;5080490;28;20490;-67
2022/04/20 06:47:14;;;;;;;18.10;9.70;;;13.30;76.90;;;;;;5071773;28;20055;-68
2022/04/20 06:49:41;;;;;;;18.55;10.20;;;13.40;77.60;;;;;;5071224;28;20035;-68
2022/04/20 07:00:19;;;;;;;23.60;11.95;;;14.80;74.20;;;;;;5081781;28;20394;-67
2022/04/20 07:02:45;;;;;;;19.27;11.20;;;14.90;74.50;;;;;;5083219;28;20032;-68
2022/04/20 07:05:11;;;;;;;23.83;12.38;;;15.00;74.40;;;;;;5083656;28;20029;-68
2022/04/20 07:07:37;;;;;;;21.92;12.85;;;15.00;74.50;;;;;;5069609;28;20021;-68
2022/04/20 07:10:04;;;;;;;19.80;12.75;;;15.10;74.50;;;;;;5073513;28;20407;-68
2022/04/20 07:12:30;;;;;;;23.73;13.27;;;15.10;74.10;;;;;;5072101;28;20047;-68
2022/04/20 07:14:56;;;;;;;22.63;13.20;;;15.20;74.20;;;;;;5071303;28;20103;-68
2022/04/20 07:17:22;;;;;;;23.58;14.05;;;15.30;73.40;;;;;;5084087;28;20561;-68
2022/04/20 07:19:48;;;;;;;23.80;13.55;;;15.50;72.60;;;;;;5071155;28;20095;-68
2022/04/20 07:22:14;;;;;;;25.92;13.27;;;15.70;72.10;;;;;;5084503;28;20153;-68
2022/04/20 07:24:39;;;;;;;21.40;12.50;;;15.90;71.50;;;;;;5073018;28;20035;-68
2022/04/20 07:27:05;;;;;;;23.27;13.52;;;16.10;70.70;;;;;;5077057;28;20016;-68
2022/04/20 07:29:31;;;;;;;20.73;12.40;;;16.40;70.20;;;;;;5081773;28;20876;-69
2022/04/20 07:31:57;;;;;;;19.42;12.15;;;16.70;68.90;;;;;;5089834;28;20027;-68
2022/04/20 07:34:22;;;;;;;22.60;12.18;;;17.00;67.40;;;;;;5069498;28;20561;-68
2022/04/20 07:36:49;;;;;;;20.38;11.80;;;17.20;66.20;;;;;;5072740;28;20064;-67
2022/04/20 07:39:15;;;;;;;20.95;11.93;;;17.40;65.10;;;;;;5077169;28;20411;-67
2022/04/20 07:41:42;;;;;;;19.67;11.93;;;17.80;64.40;;;;;;5082690;28;20035;-68
2022/04/20 07:44:08;;;;;;;19.33;11.95;;;18.10;63.10;;;;;;5081004;28;20025;-68
2022/04/20 07:46:37;;;;;;;19.65;11.38;;;18.30;60.40;;;;;;5081465;28;20020;-68
2022/04/20 07:50:18;;;;;;;20.75;11.50;;;18.50;59.90;;;;;;5080144;28;20032;-67
2022/04/20 07:51:48;;;;;;;17.15;11.10;;;18.70;59.20;;;;;;5083811;28;20063;-67
2022/04/20 07:54:14;;;;;;;21.60;11.15;;;19.00;56.90;;;;;;5075817;28;20099;-66
2022/04/20 07:56:40;;;;;;;20.80;10.75;;;19.20;56.20;;;;;;5071265;28;20032;-67
2022/04/20 07:59:06;;;;;;;15.93;9.90;;;19.40;55.40;;;;;;5082567;28;20420;-67
2022/04/20 08:01:31;;;;;;;18.92;10.43;;;19.60;54.50;;;;;;5072013;28;20028;-66
2022/04/20 08:03:58;;;;;;;16.35;10.18;;;20.00;52.40;;;;;;5081489;28;20021;-66
2022/04/20 08:06:23;;;;;;;18.67;9.70;;;20.40;50.80;;;;;;5076969;28;20059;-68
2022/04/20 08:08:49;;;;;;;16.63;9.50;;;20.90;48.80;;;;;;5077057;28;20491;-67
2022/04/20 08:11:15;;;;;;;17.75;9.50;;;21.20;47.00;;;;;;5079916;28;20031;-68
2022/04/20 08:16:27;;;;;;;15.85;8.88;;;22.30;42.70;;;;;;5080893;28;20751;-67
2022/04/20 08:18:53;;;;;;;16.20;8.82;;;22.90;40.50;;;;;;5086264;28;20028;-66
2022/04/20 08:21:19;;;;;;;18.65;9.05;;;23.10;39.50;;;;;;5085518;28;20028;-68
2022/04/20 08:23:45;;;;;;;16.23;8.80;;;23.30;38.40;;;;;;5077708;28;20174;-68
2022/04/20 08:26:10;;;;;;;15.70;8.88;;;23.20;38.30;;;;;;5073691;28;20562;-67
2022/04/20 08:28:36;;;;;;;17.00;8.77;;;23.20;38.50;;;;;;5072938;28;20107;-68
2022/04/20 08:31:02;;;;;;;15.77;9.52;;;23.20;38.20;;;;;;5088068;28;20036;-67
2022/04/20 08:33:27;;;;;;;17.45;8.68;;;23.50;37.50;;;;;;5082588;28;20031;-67
2022/04/20 08:35:53;;;;;;;14.43;8.55;;;23.70;37.10;;;;;;5082795;28;20040;-68
2022/04/20 08:38:19;;;;;;;15.35;8.43;;;23.90;36.40;;;;;;5070713;28;20039;-67
2022/04/20 08:40:45;;;;;;;15.38;8.50;;;24.40;35.50;;;;;;5087398;28;20316;-68
2022/04/20 08:43:12;;;;;;;14.63;8.40;;;25.10;34.30;;;;;;5084426;28;20544;-68
2022/04/20 08:45:40;;;;;;;17.60;9.35;;;25.60;33.20;;;;;;5076508;28;20404;-67
2022/04/20 08:48:07;;;;;;;15.38;8.75;;;26.00;32.00;;;;;;5077262;28;20017;-68
2022/04/20 08:50:33;;;;;;;12.88;7.88;;;26.10;30.90;;;;;;5079647;28;20135;-67
2022/04/20 08:53:01;;;;;;;17.08;9.65;;;25.90;30.80;;;;;;5085659;28;20017;-67
2022/04/20 08:55:27;;;;;;;15.30;8.90;;;25.60;31.10;;;;;;5088728;28;20032;-68
2022/04/20 08:57:53;;;;;;;13.95;8.35;;;25.30;31.60;;;;;;5079049;28;20040;-68
2022/04/20 09:00:22;;;;;;;18.55;10.05;;;25.10;32.50;;;;;;5071866;28;20659;-68
2022/04/20 09:03:00;;;;;;;14.85;9.55;;;24.80;32.80;;;;;;5080984;28;20038;-67
2022/04/20 09:05:28;;;;;;;14.63;9.85;;;24.40;34.60;;;;;;5087848;28;20028;-68
2022/04/20 09:07:54;;;;;;;14.38;9.23;;;24.00;35.20;;;;;;5074697;28;20022;-68
2022/04/20 09:10:21;;;;;;;16.23;10.10;;;23.80;36.80;;;;;;5073528;28;20108;-67
2022/04/20 09:13:01;;;;;;;18.23;10.93;;;23.70;37.00;;;;;;5070495;28;20024;-68
2022/04/20 09:15:31;;;;;;;17.67;11.27;;;23.50;37.10;;;;;;5075407;28;20032;-67
2022/04/20 09:17:59;;;;;;;19.48;11.20;;;23.40;37.70;;;;;;5079070;28;20036;-69
2022/04/20 09:20:25;;;;;;;21.02;11.82;;;23.20;37.80;;;;;;5074266;28;20032;-68
2022/04/20 09:23:07;;;;;;;17.77;11.23;;;23.00;38.20;;;;;;5084752;28;20132;-68
2022/04/20 09:25:37;;;;;;;22.77;12.93;;;22.70;38.10;;;;;;5086079;28;20032;-68
2022/04/20 09:28:05;;;;;;;18.13;12.25;;;22.50;38.30;;;;;;5075977;28;20029;-67
2022/04/20 09:30:42;;;;;;;21.17;11.93;;;22.40;38.20;;;;;;5076718;28;20039;-67
2022/04/20 09:33:10;;;;;;;19.10;12.30;;;22.40;39.00;;;;;;5079580;28;20060;-66
2022/04/20 09:35:46;;;;;;;20.17;11.63;;;22.40;39.40;;;;;;5081187;28;20052;-67
2022/04/20 09:38:13;;;;;;;21.17;12.93;;;22.50;39.50;;;;;;5072494;28;20029;-66
2022/04/20 09:40:39;;;;;;;22.23;13.18;;;22.80;39.50;;;;;;5086094;28;20109;-68
2022/04/20 09:43:16;;;;;;;27.92;15.10;;;23.10;38.70;;;;;;5072475;28;20033;-70
2022/04/20 09:45:43;;;;;;;23.27;13.30;;;23.30;38.70;;;;;;5081451;28;20044;-68
2022/04/20 09:51:11;;;;;;;21.05;12.88;;;23.70;37.40;;;;;;5078691;28;20043;-68
2022/04/20 09:53:39;;;;;;;20.95;12.95;;;23.90;36.70;;;;;;5082128;28;20118;-69
2022/04/20 09:56:27;;;;;;;21.23;13.13;;;24.00;36.80;;;;;;5079753;28;20029;-69
2022/04/20 09:59:01;;;;;;;21.80;13.68;;;24.20;36.70;;;;;;5082429;28;20105;-69
2022/04/20 10:01:34;;;;;;;22.30;13.52;;;24.40;35.80;;;;;;5084344;28;20020;-69
2022/04/20 10:04:04;;;;;;;20.88;13.73;;;24.60;34.40;;;;;;5086222;28;20082;-68
2022/04/20 10:06:30;;;;;;;22.05;14.32;;;24.60;34.70;;;;;;5074940;28;20029;-68
2022/04/20 10:08:56;;;;;;;23.90;15.13;;;24.80;34.20;;;;;;5079040;28;20031;-69
2022/04/20 10:11:23;;;;;;;32.50;16.58;;;24.90;33.50;;;;;;5085834;28;20032;-68
2022/04/20 10:16:39;;;;;;;23.27;16.30;;;25.10;30.70;;;;;;5082227;28;20077;-67
2022/04/20 10:19:13;;;;;;;27.10;15.98;;;25.00;31.00;;;;;;5088598;28;20020;-67
2022/04/20 10:21:47;;;;;;;26.00;16.20;;;24.90;31.60;;;;;;5083926;28;20478;-67
2022/04/20 10:24:18;;;;;;;22.55;15.73;;;24.80;32.00;;;;;;5084200;28;20028;-68
2022/04/20 10:26:48;;;;;;;26.23;17.55;;;24.80;32.40;;;;;;5082779;28;20027;-67
2022/04/20 10:29:45;;;;;;;22.93;15.67;;;25.00;31.90;;;;;;5085807;28;20032;-67
2022/04/20 10:32:22;;;;;;;24.83;16.50;;;25.00;31.60;;;;;;5075112;28;20040;-67
2022/04/20 10:34:50;;;;;;;24.08;16.55;;;25.10;31.90;;;;;;5072732;28;20048;-69
2022/04/20 10:37:21;;;;;;;23.85;16.65;;;25.30;31.20;;;;;;5085187;28;20052;-72
2022/04/20 10:39:47;;;;;;;27.65;17.80;;;25.50;30.50;;;;;;5085786;28;20044;-68
2022/04/20 10:42:15;;;;;;;25.70;17.67;;;25.50;30.70;;;;;;5078118;28;20129;-68
2022/04/20 10:45:02;;;;;;;26.67;17.17;;;25.50;30.80;;;;;;5081579;28;20032;-68
2022/04/20 10:47:32;;;;;;;28.27;17.63;;;25.50;31.30;;;;;;5078314;28;20362;-68
2022/04/20 10:50:28;;;;;;;28.65;17.58;;;25.50;30.70;;;;;;5085452;28;20037;-67
2022/04/20 10:53:03;;;;;;;25.58;16.38;;;25.50;31.00;;;;;;5086564;28;20494;-70
2022/04/20 10:55:32;;;;;;;27.08;16.58;;;25.60;32.00;;;;;;5082919;28;20433;-68
2022/04/20 10:58:15;;;;;;;23.83;16.10;;;25.80;31.40;;;;;;5081930;28;20053;-67
2022/04/20 11:00:41;;;;;;;24.25;17.08;;;26.10;31.00;;;;;;5074668;28;20060;-68
2022/04/20 11:03:10;;;;;;;26.10;16.83;;;26.30;30.70;;;;;;5080400;28;20047;-68
2022/04/20 11:05:53;;;;;;;23.30;16.33;;;26.50;30.70;;;;;;5083670;28;20055;-69
2022/04/20 11:08:20;;;;;;;22.75;15.27;;;26.70;29.60;;;;;;5084347;28;20028;-68
2022/04/20 11:19:20;;;;;;;21.92;15.85;;;26.80;29.60;;;;;;5085739;28;20145;-68
2022/04/20 11:22:07;;;;;;;26.75;17.33;;;26.70;30.50;;;;;;5081666;28;20113;-68
2022/04/20 11:24:33;;;;;;;24.00;17.45;;;26.90;30.30;;;;;;5076542;28;20040;-68
2022/04/20 11:26:59;;;;;;;24.23;17.65;;;27.10;30.60;;;;;;5081627;28;20031;-67
2022/04/20 11:29:26;;;;;;;27.92;17.35;;;27.20;30.10;;;;;;5079999;28;20024;-68
2022/04/20 11:31:58;;;;;;;24.95;16.88;;;27.30;30.70;;;;;;5085622;28;20877;-68
2022/04/20 11:34:26;;;;;;;24.13;17.70;;;27.50;29.50;;;;;;5084825;28;20412;-68
2022/04/20 11:36:54;;;;;;;26.85;18.52;;;27.80;29.50;;;;;;5082244;28;20570;-68
2022/04/20 11:39:22;;;;;;;26.45;19.10;;;28.00;29.30;;;;;;5083039;28;20031;-68
2022/04/20 11:41:50;;;;;;;28.42;18.83;;;28.20;28.90;;;;;;5079757;28;20110;-68
2022/04/20 11:44:20;;;;;;;26.65;19.65;;;28.30;28.90;;;;;;5078043;28;20527;-69
2022/04/20 11:46:46;;;;;;;27.00;20.38;;;28.40;28.80;;;;;;5081232;28;20032;-68
2022/04/20 11:49:12;;;;;;;30.00;21.05;;;28.60;28.70;;;;;;5082491;28;20073;-68
2022/04/20 11:51:43;;;;;;;29.23;20.45;;;28.70;28.50;;;;;;5080042;28;20063;-68
2022/04/20 11:54:09;;;;;;;30.00;19.92;;;28.70;28.50;;;;;;5075421;28;20088;-69
2022/04/20 11:56:37;;;;;;;31.52;20.65;;;28.70;28.50;;;;;;5076071;28;20542;-68
2022/04/20 11:59:08;;;;;;;28.83;20.92;;;28.80;28.50;;;;;;5079936;28;20074;-68
2022/04/20 12:01:36;;;;;;;34.65;21.65;;;29.00;28.50;;;;;;5078469;28;20543;-68
2022/04/20 12:04:13;;;;;;;41.28;22.63;;;29.10;28.20;;;;;;5084789;28;20039;-68
2022/04/20 12:07:04;;;;;;;35.45;21.45;;;29.20;27.50;;;;;;5072038;28;20040;-68
2022/04/20 12:09:36;;;;;;;29.92;21.25;;;29.20;27.90;;;;;;5076739;28;20486;-68
2022/04/20 12:12:05;;;;;;;30.85;22.08;;;29.30;28.00;;;;;;5081029;28;20440;-68
2022/04/20 12:14:38;;;;;;;31.88;21.52;;;29.50;27.60;;;;;;5080617;28;20028;-68
2022/04/20 12:17:06;;;;;;;31.45;22.65;;;29.80;27.80;;;;;;5082190;28;20047;-68
2022/04/20 12:19:32;;;;;;;35.00;21.02;;;30.00;27.10;;;;;;5083810;28;20028;-69
2022/04/20 12:22:09;;;;;;;56.20;31.02;;;30.10;26.20;;;;;;5082412;28;20032;-68
2022/04/20 12:24:36;;;;;;;35.13;23.88;;;30.00;25.90;;;;;;5080301;28;20021;-68
2022/04/20 12:27:02;;;;;;;33.05;21.60;;;30.00;26.40;;;;;;5080212;28;20491;-68
2022/04/20 12:29:32;;;;;;;32.78;22.02;;;30.10;26.10;;;;;;5079516;28;20020;-68
2022/04/20 12:31:58;;;;;;;29.13;21.70;;;30.30;26.40;;;;;;5074049;28;20064;-68
2022/04/20 12:34:25;;;;;;;29.30;21.30;;;30.70;26.20;;;;;;5084987;28;20071;-68
2022/04/20 12:37:08;;;;;;;37.13;24.08;;;31.10;25.50;;;;;;5079726;28;20087;-68
2022/04/20 12:39:42;;;;;;;29.95;22.88;;;31.50;24.80;;;;;;5080786;28;20411;-68
2022/04/20 12:42:09;;;;;;;26.65;21.58;;;31.80;24.00;;;;;;5081323;28;20032;-68
2022/04/20 12:44:51;;;;;;;28.70;21.13;;;32.00;23.90;;;;;;5078990;28;20056;-68
2022/04/20 12:47:17;;;;;;;32.85;22.52;;;32.30;23.10;;;;;;5074349;28;20043;-68
2022/04/20 12:49:53;;;;;;;29.75;22.10;;;32.40;23.10;;;;;;5081171;28;20028;-68
2022/04/20 12:52:23;;;;;;;26.73;21.30;;;32.40;23.10;;;;;;5084850;28;20024;-68
2022/04/20 12:54:53;;;;;;;27.77;21.10;;;32.40;22.50;;;;;;5071438;28;20499;-68
2022/04/20 13:02:59;;;;;;;30.85;20.15;;;29.90;23.90;;;;;;5084476;28;20690;-68
2022/04/20 13:05:25;;;;;;;23.45;18.30;;;30.70;23.70;;;;;;5085714;28;20567;-68
2022/04/20 13:07:51;;;;;;;30.60;20.05;;;31.40;23.80;;;;;;5091236;28;20059;-68
2022/04/20 13:10:17;;;;;;;26.58;19.58;;;31.80;22.90;;;;;;5078898;28;20043;-68
2022/04/20 13:12:54;;;;;;;25.75;19.38;;;32.20;23.10;;;;;;5086060;28;20036;-68
2022/04/20 13:15:21;;;;;;;25.63;19.90;;;32.10;22.60;;;;;;5084990;28;20020;-68
2022/04/20 13:17:47;;;;;;;29.77;20.58;;;31.90;22.30;;;;;;5086682;28;20024;-68
2022/04/20 13:20:14;;;;;;;24.65;19.55;;;31.50;22.60;;;;;;5086211;28;20126;-68
2022/04/20 13:22:40;;;;;;;25.08;19.60;;;31.90;22.30;;;;;;5086778;28;20028;-68